Belle L' Adriatique — ONEN — position and weather

sailwx.info

Track history (hours):
 
Tides and Currents Weather Stations Pressure Air Temp Water Temp Dewpoint Dewpoint Depression Visibility Wind Speed Wind Dir Waves Ship Positions

Belle L' Adriatique

Last reported at 2017-Dec-16 14:01 UTC. Time now 2017-Dec-18 11:19 UTC.
Position N 38°27' E 015°44'.

Length 111 m; draft 2.5 m.

Type: Passenger vessel. MMSI: 205481000.

Date/timePositionNaut miles runAvg speedWind from/ knotsBaromVisibWave heightAir tempDewpointWater temp
2017-Dec-16 14:01N 38°27' E 015°44'0 9.8
2017-Dec-16 14:00N 38°27' E 015°44'510.5
2017-Dec-16 13:29N 38°22' E 015°43'510.5
2017-Dec-16 12:58N 38°16' E 015°42'4 9.6
2017-Dec-16 12:30N 38°14' E 015°37'9 0.2
2017-Dec-14 18:30N 38°19' E 015°27'4 8.4
2017-Dec-14 18:00N 38°17' E 015°23'4 8.2
2017-Dec-14 17:30N 38°15' E 015°18'3 5.6
2017-Dec-14 16:56N 38°13' E 015°15'0 0.0
2017-Dec-14 16:26N 38°13' E 015°15'0 0.0
2017-Dec-14 15:56N 38°13' E 015°15'0 0.0
2017-Dec-14 14:57N 38°13' E 015°15'0 0.0
2017-Dec-14 14:26N 38°13' E 015°15'0 0.0
2017-Dec-14 13:56N 38°13' E 015°15'0 0.0
2017-Dec-14 13:27N 38°13' E 015°15'0 0.0
2017-Dec-14 12:57N 38°13' E 015°15'0 0.0
2017-Dec-14 12:20N 38°13' E 015°15'0 0.0
2017-Dec-14 11:56N 38°13' E 015°15'0 0.0
2017-Dec-14 11:31N 38°13' E 015°15'1 1.6
2017-Dec-14 11:00N 38°14' E 015°16'0 0.4
2017-Dec-14 10:30N 38°14' E 015°15'3 6.6
2017-Dec-14 10:00N 38°17' E 015°17'611.4
2017-Dec-14 09:31N 38°22' E 015°16'611.3
2017-Dec-14 09:00N 38°28' E 015°16'611.7
2017-Dec-14 08:30N 38°34' E 015°16'611.7
2017-Dec-14 07:58N 38°40' E 015°16'  
2017-Dec-08 17:34N 40°47' E 014°17'111.2
2017-Dec-08 17:30N 40°47' E 014°17'611.0
2017-Dec-08 17:00N 40°41' E 014°17'10 7.9
2017-Dec-08 15:43N 40°33' E 014°25'410.7
2017-Dec-08 15:21N 40°34' E 014°30'128 5.1
2017-Dec-07 14:19N 38°31' E 015°13'3 8.1
2017-Dec-07 13:57N 38°28' E 015°14'4 8.2
2017-Dec-07 13:30N 38°24' E 015°14'4 8.2
2017-Dec-07 13:00N 38°20' E 015°15'4 8.0
2017-Dec-07 12:30N 38°16' E 015°16'4 7.1
2017-Dec-07 12:00N 38°13' E 015°15'0 0.1
2017-Dec-07 11:10N 38°13' E 015°15'0 0.0
2017-Dec-07 10:52N 38°13' E 015°15'0 0.0
2017-Dec-07 10:28N 38°13' E 015°15'0 0.0
2017-Dec-07 09:58N 38°13' E 015°15'0 0.0
2017-Dec-07 09:28N 38°13' E 015°15'0 0.0
2017-Dec-07 08:58N 38°13' E 015°15'0 0.0
2017-Dec-07 08:22N 38°13' E 015°15'0 0.0
2017-Dec-07 07:58N 38°13' E 015°15'0 0.0
2017-Dec-07 07:16N 38°13' E 015°15'0 0.0
2017-Dec-07 06:46N 38°13' E 015°15'0 0.0
2017-Dec-07 06:29N 38°13' E 015°15'2 3.8
2017-Dec-07 06:00N 38°15' E 015°16'4 7.2
2017-Dec-07 05:30N 38°18' E 015°17'4 7.2
2017-Dec-07 05:00N 38°22' E 015°17'4 7.2
2017-Dec-07 04:30N 38°25' E 015°17'4 6.9
2017-Dec-07 03:59N 38°29' E 015°17'3 6.9
2017-Dec-07 03:30N 38°29' E 015°22'4 7.2
2017-Dec-07 03:00N 38°29' E 015°26'4 7.4
2017-Dec-07 02:29N 38°28' E 015°31'3 6.7
2017-Dec-07 02:00N 38°26' E 015°35'3 7.0
2017-Dec-07 01:30N 38°24' E 015°37'3 6.8
2017-Dec-07 01:00N 38°21' E 015°39'3 6.6
2017-Dec-07 00:30N 38°18' E 015°41'3 6.2
2017-Dec-07 00:00N 38°15' E 015°40'3 5.1
2017-Dec-06 23:30N 38°13' E 015°37'3 6.3
2017-Dec-06 23:00N 38°12' E 015°34'0 0.8
2017-Dec-06 22:25N 38°11' E 015°33'0 0.0
2017-Dec-06 21:55N 38°11' E 015°33'0 0.0
2017-Dec-06 21:25N 38°11' E 015°33'0 0.0
2017-Dec-06 20:56N 38°11' E 015°33'  
Track history (hours):
 
Tides and Currents Weather Stations Pressure Air Temp Water Temp Dewpoint Dewpoint Depression Visibility Wind Speed Wind Dir Waves Ship Positions

Belle L' Adriatique

Last reported at 2017-Dec-16 14:01 UTC. Time now 2017-Dec-18 11:19 UTC.
Position N 38°27' E 015°44'.

Length 111 m; draft 2.5 m.

Type: Passenger vessel. MMSI: 205481000.

Date/timePositionNaut miles runAvg speedWind from/ knotsBaromVisibWave heightAir tempDewpointWater temp
2017-Dec-16 14:01N 38°27' E 015°44'0 9.8
2017-Dec-16 14:00N 38°27' E 015°44'510.5
2017-Dec-16 13:29N 38°22' E 015°43'510.5
2017-Dec-16 12:58N 38°16' E 015°42'4 9.6
2017-Dec-16 12:30N 38°14' E 015°37'9 0.2
2017-Dec-14 18:30N 38°19' E 015°27'4 8.4
2017-Dec-14 18:00N 38°17' E 015°23'4 8.2
2017-Dec-14 17:30N 38°15' E 015°18'3 5.6
2017-Dec-14 16:56N 38°13' E 015°15'0 0.0
2017-Dec-14 16:26N 38°13' E 015°15'0 0.0
2017-Dec-14 15:56N 38°13' E 015°15'0 0.0
2017-Dec-14 14:57N 38°13' E 015°15'0 0.0
2017-Dec-14 14:26N 38°13' E 015°15'0 0.0
2017-Dec-14 13:56N 38°13' E 015°15'0 0.0
2017-Dec-14 13:27N 38°13' E 015°15'0 0.0
2017-Dec-14 12:57N 38°13' E 015°15'0 0.0
2017-Dec-14 12:20N 38°13' E 015°15'0 0.0
2017-Dec-14 11:56N 38°13' E 015°15'0 0.0
2017-Dec-14 11:31N 38°13' E 015°15'1 1.6
2017-Dec-14 11:00N 38°14' E 015°16'0 0.4
2017-Dec-14 10:30N 38°14' E 015°15'3 6.6
2017-Dec-14 10:00N 38°17' E 015°17'611.4
2017-Dec-14 09:31N 38°22' E 015°16'611.3
2017-Dec-14 09:00N 38°28' E 015°16'611.7
2017-Dec-14 08:30N 38°34' E 015°16'611.7
2017-Dec-14 07:58N 38°40' E 015°16'  
2017-Dec-08 17:34N 40°47' E 014°17'111.2
2017-Dec-08 17:30N 40°47' E 014°17'611.0
2017-Dec-08 17:00N 40°41' E 014°17'10 7.9
2017-Dec-08 15:43N 40°33' E 014°25'410.7
2017-Dec-08 15:21N 40°34' E 014°30'128 5.1
2017-Dec-07 14:19N 38°31' E 015°13'3 8.1
2017-Dec-07 13:57N 38°28' E 015°14'4 8.2
2017-Dec-07 13:30N 38°24' E 015°14'4 8.2
2017-Dec-07 13:00N 38°20' E 015°15'4 8.0
2017-Dec-07 12:30N 38°16' E 015°16'4 7.1
2017-Dec-07 12:00N 38°13' E 015°15'0 0.1
2017-Dec-07 11:10N 38°13' E 015°15'0 0.0
2017-Dec-07 10:52N 38°13' E 015°15'0 0.0
2017-Dec-07 10:28N 38°13' E 015°15'0 0.0
2017-Dec-07 09:58N 38°13' E 015°15'0 0.0
2017-Dec-07 09:28N 38°13' E 015°15'0 0.0
2017-Dec-07 08:58N 38°13' E 015°15'0 0.0
2017-Dec-07 08:22N 38°13' E 015°15'0 0.0
2017-Dec-07 07:58N 38°13' E 015°15'0 0.0
2017-Dec-07 07:16N 38°13' E 015°15'0 0.0
2017-Dec-07 06:46N 38°13' E 015°15'0 0.0
2017-Dec-07 06:29N 38°13' E 015°15'2 3.8
2017-Dec-07 06:00N 38°15' E 015°16'4 7.2
2017-Dec-07 05:30N 38°18' E 015°17'4 7.2
2017-Dec-07 05:00N 38°22' E 015°17'4 7.2
2017-Dec-07 04:30N 38°25' E 015°17'4 6.9
2017-Dec-07 03:59N 38°29' E 015°17'3 6.9
2017-Dec-07 03:30N 38°29' E 015°22'4 7.2
2017-Dec-07 03:00N 38°29' E 015°26'4 7.4
2017-Dec-07 02:29N 38°28' E 015°31'3 6.7
2017-Dec-07 02:00N 38°26' E 015°35'3 7.0
2017-Dec-07 01:30N 38°24' E 015°37'3 6.8
2017-Dec-07 01:00N 38°21' E 015°39'3 6.6
2017-Dec-07 00:30N 38°18' E 015°41'3 6.2
2017-Dec-07 00:00N 38°15' E 015°40'3 5.1
2017-Dec-06 23:30N 38°13' E 015°37'3 6.3
2017-Dec-06 23:00N 38°12' E 015°34'0 0.8
2017-Dec-06 22:25N 38°11' E 015°33'0 0.0
2017-Dec-06 21:55N 38°11' E 015°33'0 0.0
2017-Dec-06 21:25N 38°11' E 015°33'0 0.0
2017-Dec-06 20:56N 38°11' E 015°33'  

Dump ship's entire track history